sensor_id;sensor_type;location;lat;lon;timestamp;pressure;altitude;pressure_sealevel;temperature;humidity
35758;BME280;21879;50.110;18.900;2023-09-19T00:00:58;97998.59;;;19.18;63.57
35758;BME280;21879;50.110;18.900;2023-09-19T00:11:26;97994.54;;;19.40;63.56
35758;BME280;21879;50.110;18.900;2023-09-19T00:21:55;97987.75;;;19.54;63.47
35758;BME280;21879;50.110;18.900;2023-09-19T00:32:24;97980.03;;;19.62;63.59
35758;BME280;21879;50.110;18.900;2023-09-19T00:42:58;97973.69;;;19.69;63.76
35758;BME280;21879;50.110;18.900;2023-09-19T00:53:27;97968.44;;;19.68;63.60
35758;BME280;21879;50.110;18.900;2023-09-19T01:03:55;97957.60;;;19.76;63.68
35758;BME280;21879;50.110;18.900;2023-09-19T01:14:31;97947.50;;;19.88;63.46
35758;BME280;21879;50.110;18.900;2023-09-19T01:25:33;97938.64;;;19.95;63.48
35758;BME280;21879;50.110;18.900;2023-09-19T01:36:10;97924.34;;;19.89;63.45
35758;BME280;21879;50.110;18.900;2023-09-19T01:46:41;97919.80;;;19.91;63.54
35758;BME280;21879;50.110;18.900;2023-09-19T01:57:16;97915.65;;;19.96;63.60
35758;BME280;21879;50.110;18.900;2023-09-19T02:07:45;97923.10;;;19.98;63.60
35758;BME280;21879;50.110;18.900;2023-09-19T02:18:14;97923.55;;;19.97;63.96
35758;BME280;21879;50.110;18.900;2023-09-19T02:28:42;97917.14;;;19.94;64.18
35758;BME280;21879;50.110;18.900;2023-09-19T02:39:13;97922.94;;;19.83;64.35
35758;BME280;21879;50.110;18.900;2023-09-19T02:49:40;97918.48;;;19.75;64.68
35758;BME280;21879;50.110;18.900;2023-09-19T03:00:11;97913.20;;;19.60;64.89
35758;BME280;21879;50.110;18.900;2023-09-19T03:10:39;97904.86;;;19.48;65.90
35758;BME280;21879;50.110;18.900;2023-09-19T03:21:07;97899.26;;;19.44;66.53
35758;BME280;21879;50.110;18.900;2023-09-19T03:31:37;97893.81;;;19.47;67.13
35758;BME280;21879;50.110;18.900;2023-09-19T03:42:06;97891.11;;;19.48;67.41
35758;BME280;21879;50.110;18.900;2023-09-19T03:52:34;97895.95;;;19.46;67.67
35758;BME280;21879;50.110;18.900;2023-09-19T04:03:03;97892.64;;;19.37;68.15
35758;BME280;21879;50.110;18.900;2023-09-19T04:13:33;97892.81;;;19.34;68.36
35758;BME280;21879;50.110;18.900;2023-09-19T04:24:01;97894.16;;;19.38;68.85
35758;BME280;21879;50.110;18.900;2023-09-19T04:34:29;97899.23;;;19.30;69.06
35758;BME280;21879;50.110;18.900;2023-09-19T04:44:57;97898.16;;;19.08;70.39
35758;BME280;21879;50.110;18.900;2023-09-19T04:55:26;97905.77;;;18.98;71.72
35758;BME280;21879;50.110;18.900;2023-09-19T05:05:54;97909.33;;;19.07;72.18
35758;BME280;21879;50.110;18.900;2023-09-19T05:16:22;97912.24;;;19.12;72.68
35758;BME280;21879;50.110;18.900;2023-09-19T05:26:49;97921.83;;;19.11;72.98
35758;BME280;21879;50.110;18.900;2023-09-19T05:37:17;97932.80;;;19.16;73.29
35758;BME280;21879;50.110;18.900;2023-09-19T05:47:46;97940.55;;;19.19;73.10
35758;BME280;21879;50.110;18.900;2023-09-19T05:58:14;97960.33;;;19.15;73.03
35758;BME280;21879;50.110;18.900;2023-09-19T06:08:44;97965.98;;;19.11;72.93
35758;BME280;21879;50.110;18.900;2023-09-19T06:19:12;97974.84;;;19.11;72.76
35758;BME280;21879;50.110;18.900;2023-09-19T06:29:39;97980.82;;;19.11;72.63
35758;BME280;21879;50.110;18.900;2023-09-19T06:40:09;97991.77;;;19.11;72.64
35758;BME280;21879;50.110;18.900;2023-09-19T06:50:40;98004.80;;;19.11;72.60
35758;BME280;21879;50.110;18.900;2023-09-19T07:01:10;98029.70;;;19.10;72.50
35758;BME280;21879;50.110;18.900;2023-09-19T07:11:41;98062.70;;;19.06;72.30
35758;BME280;21879;50.110;18.900;2023-09-19T07:22:08;98086.05;;;19.04;72.32
35758;BME280;21879;50.110;18.900;2023-09-19T07:32:36;98102.32;;;19.06;72.47
35758;BME280;21879;50.110;18.900;2023-09-19T07:43:04;98122.06;;;19.06;72.44
35758;BME280;21879;50.110;18.900;2023-09-19T07:53:33;98147.80;;;19.12;72.73
35758;BME280;21879;50.110;18.900;2023-09-19T08:04:02;98163.16;;;19.21;72.73
35758;BME280;21879;50.110;18.900;2023-09-19T08:14:30;98174.75;;;19.19;72.95
35758;BME280;21879;50.110;18.900;2023-09-19T08:24:57;98185.40;;;19.21;72.93
35758;BME280;21879;50.110;18.900;2023-09-19T08:35:26;98200.16;;;19.19;73.14
35758;BME280;21879;50.110;18.900;2023-09-19T08:46:03;98206.19;;;19.21;73.01
35758;BME280;21879;50.110;18.900;2023-09-19T08:56:37;98217.35;;;19.27;73.01
35758;BME280;21879;50.110;18.900;2023-09-19T09:07:06;98216.98;;;19.31;73.06
35758;BME280;21879;50.110;18.900;2023-09-19T09:17:33;98215.95;;;19.30;73.06
35758;BME280;21879;50.110;18.900;2023-09-19T09:28:02;98221.84;;;19.29;73.23
35758;BME280;21879;50.110;18.900;2023-09-19T09:38:43;98227.92;;;19.20;73.45
35758;BME280;21879;50.110;18.900;2023-09-19T09:49:11;98243.43;;;19.27;73.83
35758;BME280;21879;50.110;18.900;2023-09-19T10:00:01;98244.05;;;19.39;73.84
35758;BME280;21879;50.110;18.900;2023-09-19T10:10:43;98239.55;;;19.44;73.98
35758;BME280;21879;50.110;18.900;2023-09-19T10:21:20;98248.98;;;19.45;74.05
35758;BME280;21879;50.110;18.900;2023-09-19T10:31:50;98261.79;;;19.50;74.23
35758;BME280;21879;50.110;18.900;2023-09-19T10:42:21;98273.23;;;19.64;74.31
35758;BME280;21879;50.110;18.900;2023-09-19T10:52:53;98283.73;;;19.73;74.38
35758;BME280;21879;50.110;18.900;2023-09-19T11:03:25;98296.64;;;19.78;74.27
35758;BME280;21879;50.110;18.900;2023-09-19T11:14:28;98300.98;;;19.80;73.94
35758;BME280;21879;50.110;18.900;2023-09-19T11:24:56;98306.19;;;19.72;73.97
35758;BME280;21879;50.110;18.900;2023-09-19T11:36:00;98310.19;;;19.73;74.12
35758;BME280;21879;50.110;18.900;2023-09-19T11:46:29;98315.73;;;19.75;74.01
35758;BME280;21879;50.110;18.900;2023-09-19T11:56:58;98318.91;;;19.78;74.03
35758;BME280;21879;50.110;18.900;2023-09-19T12:07:26;98317.73;;;19.87;73.88
35758;BME280;21879;50.110;18.900;2023-09-19T12:17:54;98324.04;;;19.94;73.75
35758;BME280;21879;50.110;18.900;2023-09-19T12:28:22;98328.92;;;20.08;73.86
35758;BME280;21879;50.110;18.900;2023-09-19T12:38:52;98322.56;;;20.21;73.58
35758;BME280;21879;50.110;18.900;2023-09-19T12:49:21;98323.52;;;20.36;73.17
35758;BME280;21879;50.110;18.900;2023-09-19T12:59:53;98320.08;;;20.57;73.37
35758;BME280;21879;50.110;18.900;2023-09-19T13:10:21;98315.98;;;20.70;73.06
35758;BME280;21879;50.110;18.900;2023-09-19T13:21:07;98315.46;;;20.76;72.39
35758;BME280;21879;50.110;18.900;2023-09-19T13:31:36;98320.39;;;20.80;71.75
35758;BME280;21879;50.110;18.900;2023-09-19T13:42:08;98321.39;;;20.87;71.11
35758;BME280;21879;50.110;18.900;2023-09-19T13:52:38;98319.36;;;20.85;70.63
35758;BME280;21879;50.110;18.900;2023-09-19T14:03:06;98347.27;;;20.73;70.75
35758;BME280;21879;50.110;18.900;2023-09-19T14:13:34;98354.85;;;20.57;70.70
35758;BME280;21879;50.110;18.900;2023-09-19T14:24:02;98356.40;;;20.38;70.92
35758;BME280;21879;50.110;18.900;2023-09-19T14:34:30;98348.80;;;20.29;71.04
35758;BME280;21879;50.110;18.900;2023-09-19T14:44:59;98358.04;;;20.18;71.08
35758;BME280;21879;50.110;18.900;2023-09-19T14:55:27;98355.58;;;19.85;70.60
35758;BME280;21879;50.110;18.900;2023-09-19T15:06:01;98367.67;;;19.52;70.98
35758;BME280;21879;50.110;18.900;2023-09-19T15:16:29;98364.23;;;19.50;71.64
35758;BME280;21879;50.110;18.900;2023-09-19T15:26:56;98362.80;;;19.30;71.23
35758;BME280;21879;50.110;18.900;2023-09-19T15:37:24;98358.14;;;19.03;71.82
35758;BME280;21879;50.110;18.900;2023-09-19T15:47:52;98351.41;;;18.89;72.26
35758;BME280;21879;50.110;18.900;2023-09-19T15:58:20;98348.79;;;18.99;72.57
35758;BME280;21879;50.110;18.900;2023-09-19T16:08:50;98338.69;;;18.97;72.70
35758;BME280;21879;50.110;18.900;2023-09-19T16:19:17;98343.74;;;18.80;73.13
35758;BME280;21879;50.110;18.900;2023-09-19T16:29:46;98357.83;;;18.84;73.58
35758;BME280;21879;50.110;18.900;2023-09-19T16:40:14;98369.96;;;19.03;73.88
35758;BME280;21879;50.110;18.900;2023-09-19T16:50:42;98379.81;;;19.10;73.36
35758;BME280;21879;50.110;18.900;2023-09-19T17:01:10;98380.36;;;19.17;73.19
35758;BME280;21879;50.110;18.900;2023-09-19T17:11:39;98394.61;;;19.32;72.68
35758;BME280;21879;50.110;18.900;2023-09-19T17:22:07;98408.38;;;19.35;71.94
35758;BME280;21879;50.110;18.900;2023-09-19T17:32:35;98415.60;;;19.24;71.45
35758;BME280;21879;50.110;18.900;2023-09-19T17:43:03;98427.95;;;19.02;71.24
35758;BME280;21879;50.110;18.900;2023-09-19T17:53:32;98436.77;;;18.72;71.47
35758;BME280;21879;50.110;18.900;2023-09-19T18:04:02;98442.88;;;18.65;71.89
35758;BME280;21879;50.110;18.900;2023-09-19T18:14:30;98458.06;;;18.64;71.66
35758;BME280;21879;50.110;18.900;2023-09-19T18:24:59;98468.51;;;18.67;71.13
35758;BME280;21879;50.110;18.900;2023-09-19T18:35:27;98475.72;;;18.59;70.40
35758;BME280;21879;50.110;18.900;2023-09-19T18:45:57;98480.95;;;18.56;70.23
35758;BME280;21879;50.110;18.900;2023-09-19T18:56:25;98482.73;;;18.52;69.79
35758;BME280;21879;50.110;18.900;2023-09-19T19:06:53;98494.52;;;18.49;69.59
35758;BME280;21879;50.110;18.900;2023-09-19T19:17:21;98499.22;;;18.42;69.48
35758;BME280;21879;50.110;18.900;2023-09-19T19:27:50;98502.27;;;18.37;68.97
35758;BME280;21879;50.110;18.900;2023-09-19T19:38:19;98514.11;;;18.32;68.59
35758;BME280;21879;50.110;18.900;2023-09-19T19:48:50;98511.36;;;18.22;68.16
35758;BME280;21879;50.110;18.900;2023-09-19T19:59:19;98511.73;;;18.09;67.99
35758;BME280;21879;50.110;18.900;2023-09-19T20:09:47;98516.59;;;17.98;68.15
35758;BME280;21879;50.110;18.900;2023-09-19T20:20:15;98522.21;;;17.86;67.91
35758;BME280;21879;50.110;18.900;2023-09-19T20:30:45;98527.39;;;17.75;67.81
35758;BME280;21879;50.110;18.900;2023-09-19T20:41:14;98527.05;;;17.70;67.63
35758;BME280;21879;50.110;18.900;2023-09-19T20:51:41;98531.36;;;17.72;67.35
35758;BME280;21879;50.110;18.900;2023-09-19T21:02:10;98534.67;;;17.73;66.76
35758;BME280;21879;50.110;18.900;2023-09-19T21:12:39;98534.48;;;17.61;66.46
35758;BME280;21879;50.110;18.900;2023-09-19T21:23:07;98538.30;;;17.49;66.19
35758;BME280;21879;50.110;18.900;2023-09-19T21:33:42;98538.77;;;17.32;66.31
35758;BME280;21879;50.110;18.900;2023-09-19T21:44:12;98540.82;;;17.25;66.13
35758;BME280;21879;50.110;18.900;2023-09-19T21:54:40;98536.30;;;17.19;66.22
35758;BME280;21879;50.110;18.900;2023-09-19T22:05:10;98540.67;;;17.11;66.13
35758;BME280;21879;50.110;18.900;2023-09-19T22:15:38;98542.91;;;17.07;66.00
35758;BME280;21879;50.110;18.900;2023-09-19T22:26:11;98542.73;;;16.88;65.82
35758;BME280;21879;50.110;18.900;2023-09-19T22:36:43;98546.12;;;16.58;65.95
35758;BME280;21879;50.110;18.900;2023-09-19T22:47:15;98546.80;;;16.58;66.03
35758;BME280;21879;50.110;18.900;2023-09-19T22:57:44;98554.79;;;16.57;66.54
35758;BME280;21879;50.110;18.900;2023-09-19T23:08:13;98552.45;;;16.53;66.23
35758;BME280;21879;50.110;18.900;2023-09-19T23:18:42;98561.18;;;16.54;66.11
35758;BME280;21879;50.110;18.900;2023-09-19T23:29:12;98566.15;;;16.53;66.04
35758;BME280;21879;50.110;18.900;2023-09-19T23:39:40;98573.60;;;16.55;65.86
35758;BME280;21879;50.110;18.900;2023-09-19T23:50:09;98586.14;;;16.58;65.65
